Time;durP1;ratioP1;P1;durP2;ratioP2;P2;SDS_P1;SDS_P2;PMS_P1;PMS_P2;Temp;Humidity;BMP_temperature;BMP_pressure;BME280_temperature;BME280_humidity;BME280_pressure;Samples;Min_cycle;Max_cycle;Signal;HPM_P1;HPM_P2
2021/10/18 00:02:11;;;;;;;23.40;19.80;;;;;;;12.77;69.77;101276.31;4982865;28;20387;-71
2021/10/18 00:04:36;;;;;;;24.65;18.38;;;;;;;12.72;69.64;101280.69;4984343;28;20493;-73
2021/10/18 00:07:02;;;;;;;23.10;17.20;;;;;;;12.84;69.49;101276.34;4987076;28;20037;-72
2021/10/18 00:09:27;;;;;;;26.25;18.58;;;;;;;12.66;69.65;101268.34;4981613;28;20508;-71
2021/10/18 00:11:53;;;;;;;20.10;15.50;;;;;;;12.67;69.63;101283.28;4983638;28;20045;-71
2021/10/18 00:14:18;;;;;;;24.83;19.15;;;;;;;12.68;69.76;101270.09;4985237;28;20041;-72
2021/10/18 00:16:44;;;;;;;22.90;18.05;;;;;;;12.74;70.08;101271.91;4982071;28;20077;-73
2021/10/18 00:19:11;;;;;;;27.70;19.08;;;;;;;12.69;69.93;101284.19;4981067;28;20081;-71
2021/10/18 00:21:37;;;;;;;25.17;19.13;;;;;;;12.63;69.81;101269.22;4985274;28;20554;-71
2021/10/18 00:24:02;;;;;;;21.23;16.15;;;;;;;12.78;69.50;101267.53;4985379;28;20120;-71
2021/10/18 00:26:28;;;;;;;25.52;18.80;;;;;;;12.67;70.27;101273.63;4986981;28;20122;-70
2021/10/18 00:28:53;;;;;;;22.42;17.10;;;;;;;12.60;69.69;101263.94;4984508;28;20537;-71
2021/10/18 00:31:19;;;;;;;22.70;17.92;;;;;;;12.67;69.89;101270.13;4985563;28;20541;-71
2021/10/18 00:33:45;;;;;;;25.25;17.70;;;;;;;12.56;69.85;101266.53;4985614;28;20069;-71
2021/10/18 00:36:10;;;;;;;25.77;18.02;;;;;;;12.74;69.43;101271.91;4985775;28;20038;-70
2021/10/18 00:38:36;;;;;;;24.05;17.38;;;;;;;12.55;69.49;101268.31;4984015;28;20173;-70
2021/10/18 00:41:01;;;;;;;23.17;16.33;;;;;;;12.66;69.92;101258.69;4985881;28;20038;-70
2021/10/18 00:43:27;;;;;;;32.28;19.30;;;;;;;12.74;69.25;101252.59;4983200;28;20062;-70
2021/10/18 00:45:53;;;;;;;21.90;17.67;;;;;;;12.83;69.48;101261.41;4985022;28;20781;-70
2021/10/18 00:48:18;;;;;;;25.92;19.10;;;;;;;12.80;69.24;101260.50;4989346;28;20041;-72
2021/10/18 00:50:44;;;;;;;22.50;18.15;;;;;;;12.72;69.96;101252.59;4989910;28;20101;-70
2021/10/18 00:53:10;;;;;;;22.50;17.77;;;;;;;12.78;69.64;101264.88;4988811;28;20564;-70
2021/10/18 00:55:36;;;;;;;23.50;18.55;;;;;;;12.75;69.16;101244.69;4987035;28;20034;-69
2021/10/18 00:58:02;;;;;;;29.48;17.77;;;;;;;12.74;69.66;101257.88;4989003;28;20038;-70
2021/10/18 01:00:27;;;;;;;24.33;17.95;;;;;;;12.84;69.58;101259.66;4988830;28;20038;-70
2021/10/18 01:02:53;;;;;;;26.77;19.38;;;;;;;12.82;69.73;101258.78;4988701;28;20701;-70
2021/10/18 01:05:18;;;;;;;20.38;17.48;;;;;;;12.78;69.61;101250.00;4987481;28;20030;-70
2021/10/18 01:07:46;;;;;;;19.23;17.13;;;;;;;12.75;69.51;101262.25;5020682;28;20030;-69
2021/10/18 01:10:11;;;;;;;23.50;18.00;;;;;;;12.77;69.71;101252.59;4989715;28;20037;-69
2021/10/18 01:12:37;;;;;;;21.65;16.38;;;;;;;12.75;69.39;101244.69;4986018;28;20042;-69
2021/10/18 01:15:04;;;;;;;21.50;16.85;;;;;;;12.68;69.64;101261.34;4987749;28;20137;-69
2021/10/18 01:17:29;;;;;;;21.48;17.58;;;;;;;12.57;69.73;101250.75;4987007;28;20077;-69
2021/10/18 01:19:54;;;;;;;20.58;16.80;;;;;;;12.66;69.70;101266.59;4986283;28;20042;-70
2021/10/18 01:22:20;;;;;;;19.65;16.73;;;;;;;12.62;69.65;101251.66;4986646;28;20038;-70
2021/10/18 01:24:45;;;;;;;22.45;16.70;;;;;;;12.67;69.70;101263.09;4986409;28;20042;-70
2021/10/18 01:27:13;;;;;;;20.27;16.00;;;;;;;12.61;70.35;101257.78;4987525;28;20035;-70
2021/10/18 01:29:39;;;;;;;20.52;15.07;;;;;;;12.54;69.71;101245.47;4990234;28;20042;-70
2021/10/18 01:32:06;;;;;;;22.73;17.85;;;;;;;12.56;70.25;101262.16;4988722;28;20096;-70
2021/10/18 01:34:32;;;;;;;20.02;15.45;;;;;;;12.64;69.85;101260.47;4988938;28;20084;-70
2021/10/18 01:37:00;;;;;;;25.33;16.80;;;;;;;12.60;69.42;101249.91;4986285;28;20093;-70
2021/10/18 01:39:26;;;;;;;23.65;17.38;;;;;;;12.60;69.85;101244.63;4987918;28;20041;-70
2021/10/18 01:41:52;;;;;;;27.23;18.75;;;;;;;12.67;69.39;101242.03;4987857;28;20038;-70
2021/10/18 01:44:18;;;;;;;28.65;17.83;;;;;;;12.57;69.24;101248.13;4990428;28;20068;-69
2021/10/18 01:46:43;;;;;;;23.80;18.98;;;;;;;12.57;69.31;101250.75;4987099;28;20042;-70
2021/10/18 01:49:09;;;;;;;24.17;16.42;;;;;;;12.50;69.84;101245.44;4986612;28;20456;-70
2021/10/18 01:51:35;;;;;;;31.33;18.63;;;;;;;12.71;69.85;101244.66;4988733;28;20531;-70
2021/10/18 01:54:01;;;;;;;25.45;17.95;;;;;;;12.58;69.58;101234.09;4987912;28;20145;-70
2021/10/18 01:56:26;;;;;;;20.90;16.25;;;;;;;12.70;69.50;101245.56;4987322;28;20450;-70
2021/10/18 01:58:52;;;;;;;25.13;17.08;;;;;;;12.74;69.50;101248.22;4989208;28;20048;-69
2021/10/18 02:01:17;;;;;;;21.73;18.17;;;;;;;12.64;69.38;101249.94;4987413;28;20038;-70
2021/10/18 02:03:43;;;;;;;24.50;16.95;;;;;;;12.68;69.86;101258.69;4986777;28;20042;-69
2021/10/18 02:06:12;;;;;;;24.58;16.50;;;;;;;12.57;69.58;101247.22;4987246;28;20545;-70
2021/10/18 02:08:38;;;;;;;24.45;15.60;;;;;;;12.52;70.16;101236.66;4980929;28;20371;-69
2021/10/18 02:11:04;;;;;;;24.88;18.40;;;;;;;12.52;69.72;101252.47;4988152;28;20570;-68
2021/10/18 02:13:30;;;;;;;27.30;18.50;;;;;;;12.64;69.93;101262.19;4987348;28;20041;-68
2021/10/18 02:15:55;;;;;;;25.00;17.23;;;;;;;12.67;69.69;101254.31;4987411;28;20569;-71
2021/10/18 02:18:21;;;;;;;24.90;15.98;;;;;;;12.61;69.83;101252.53;4986914;28;20109;-70
2021/10/18 02:20:47;;;;;;;22.40;16.67;;;;;;;12.55;69.10;101254.22;4986441;28;20045;-71
2021/10/18 02:23:12;;;;;;;19.38;15.45;;;;;;;12.44;69.92;101241.03;4984083;28;20045;-71
2021/10/18 02:25:38;;;;;;;22.15;17.65;;;;;;;12.57;69.25;101256.03;4985457;28;20049;-72
2021/10/18 02:28:04;;;;;;;19.88;15.80;;;;;;;12.57;69.29;101261.31;4986240;28;20057;-71
2021/10/18 02:30:29;;;;;;;30.23;16.67;;;;;;;12.61;69.17;101249.00;4983517;28;20049;-71
2021/10/18 02:32:55;;;;;;;22.15;15.32;;;;;;;12.28;69.51;101250.56;4987735;28;20081;-72
2021/10/18 02:35:20;;;;;;;23.75;16.88;;;;;;;12.36;69.71;101250.63;4985605;28;20084;-72
2021/10/18 02:37:46;;;;;;;26.25;19.10;;;;;;;12.34;69.60;101255.91;4986914;28;20689;-70
2021/10/18 02:40:12;;;;;;;21.00;17.00;;;;;;;12.20;70.44;101268.09;4985948;28;20093;-71
2021/10/18 02:42:37;;;;;;;22.42;18.23;;;;;;;12.40;70.07;101265.56;4985793;28;20089;-72
2021/10/18 02:45:05;;;;;;;19.67;14.98;;;;;;;12.45;70.33;101262.09;4987716;28;20116;-71
2021/10/18 02:47:30;;;;;;;21.48;17.75;;;;;;;12.48;70.16;101265.59;4985914;28;20034;-70
2021/10/18 02:49:56;;;;;;;21.23;17.05;;;;;;;12.45;70.30;101261.19;4987492;28;20089;-70
2021/10/18 02:52:21;;;;;;;25.42;18.77;;;;;;;12.27;69.77;101251.47;4986223;28;20046;-71
2021/10/18 02:54:47;;;;;;;21.17;17.20;;;;;;;12.33;70.26;101267.28;4985241;28;20033;-70
2021/10/18 02:57:12;;;;;;;23.83;17.98;;;;;;;12.42;69.81;101243.66;4985976;28;20781;-71
2021/10/18 02:59:38;;;;;;;25.52;18.80;;;;;;;12.43;69.33;101245.44;4988606;28;20045;-71
2021/10/18 03:02:03;;;;;;;19.85;15.35;;;;;;;12.45;69.01;101241.06;4986847;28;20029;-71
2021/10/18 03:04:28;;;;;;;23.92;18.25;;;;;;;12.49;69.85;101251.59;4985907;28;20474;-71
2021/10/18 03:06:54;;;;;;;30.95;18.08;;;;;;;12.41;69.69;101241.91;4986358;28;20022;-69
2021/10/18 03:09:19;;;;;;;28.13;18.63;;;;;;;12.42;69.60;101248.03;4985596;28;20037;-70
2021/10/18 03:11:45;;;;;;;23.95;18.73;;;;;;;12.44;69.90;101257.69;4984381;28;20027;-71
2021/10/18 03:14:10;;;;;;;23.58;18.13;;;;;;;12.35;70.11;101255.00;4986286;28;20780;-70
2021/10/18 03:16:36;;;;;;;24.67;17.17;;;;;;;12.27;69.87;101250.56;4985623;28;20026;-70
2021/10/18 03:19:01;;;;;;;24.33;17.40;;;;;;;12.35;69.74;101260.28;4984746;28;20500;-70
2021/10/18 03:21:27;;;;;;;27.02;18.63;;;;;;;12.35;69.64;101255.00;4985432;28;20069;-70
2021/10/18 03:23:52;;;;;;;24.65;16.10;;;;;;;12.36;69.60;101245.34;4985370;28;20034;-70
2021/10/18 03:26:19;;;;;;;23.95;17.17;;;;;;;12.30;69.68;101263.75;4983098;28;20041;-71
2021/10/18 03:28:44;;;;;;;21.45;17.33;;;;;;;12.31;70.08;101250.59;4985580;28;20058;-70
2021/10/18 03:31:10;;;;;;;21.80;17.23;;;;;;;12.34;70.21;101258.53;4988734;28;20409;-69
2021/10/18 03:33:36;;;;;;;33.33;19.45;;;;;;;12.21;70.36;101249.66;4986625;28;20038;-70
2021/10/18 03:36:03;;;;;;;28.77;19.75;;;;;;;12.31;70.55;101269.00;4986513;28;20041;-70
2021/10/18 03:38:30;;;;;;;22.60;19.48;;;;;;;12.46;70.17;101255.09;4986459;28;20099;-70
2021/10/18 03:40:56;;;;;;;32.78;20.05;;;;;;;12.49;70.44;101259.50;4986419;28;20050;-70
2021/10/18 03:43:21;;;;;;;24.75;20.38;;;;;;;12.32;70.00;101262.03;4984550;28;20050;-71
2021/10/18 03:45:47;;;;;;;24.48;18.23;;;;;;;12.31;70.56;101265.50;4986774;28;20057;-71
2021/10/18 03:48:12;;;;;;;24.33;18.25;;;;;;;12.41;71.33;101270.84;4986015;28;20048;-70
2021/10/18 03:50:38;;;;;;;21.88;16.75;;;;;;;12.55;70.60;101275.28;4985740;28;20034;-71
2021/10/18 03:53:03;;;;;;;27.23;19.20;;;;;;;12.53;70.58;101266.53;4983220;28;20674;-70
2021/10/18 03:55:29;;;;;;;23.08;19.85;;;;;;;12.60;70.62;101277.09;4985414;28;20459;-70
2021/10/18 03:57:54;;;;;;;23.27;18.88;;;;;;;12.53;70.40;101275.31;4986799;28;20383;-71
2021/10/18 04:00:20;;;;;;;20.83;16.02;;;;;;;12.56;70.34;101280.59;4985959;28;20038;-71
2021/10/18 04:02:45;;;;;;;24.77;17.85;;;;;;;12.52;70.68;101270.03;4983874;28;20042;-71
2021/10/18 04:05:11;;;;;;;29.30;18.33;;;;;;;12.57;71.21;101276.19;4986112;28;20541;-70
2021/10/18 04:07:38;;;;;;;28.60;18.58;;;;;;;12.80;70.99;101271.91;4987115;28;20453;-70
2021/10/18 04:10:05;;;;;;;26.13;20.40;;;;;;;12.86;70.48;101279.00;4984416;28;20030;-70
2021/10/18 04:12:30;;;;;;;28.45;20.98;;;;;;;12.79;70.57;101264.03;4985361;28;20121;-70
2021/10/18 04:14:56;;;;;;;23.75;19.33;;;;;;;12.83;70.82;101269.31;4987469;28;20534;-70
2021/10/18 04:17:21;;;;;;;26.15;20.05;;;;;;;12.86;70.51;101258.78;4985861;28;20426;-70
2021/10/18 04:19:47;;;;;;;32.85;19.60;;;;;;;12.96;70.52;101275.50;4987693;28;20054;-70
2021/10/18 04:22:12;;;;;;;27.52;19.70;;;;;;;12.93;69.59;101275.50;4989491;28;20914;-70
2021/10/18 04:24:38;;;;;;;23.90;17.88;;;;;;;12.84;70.51;101273.69;4988051;28;20038;-70
2021/10/18 04:27:03;;;;;;;35.45;19.67;;;;;;;12.92;70.19;101276.38;4990996;28;20355;-71
2021/10/18 04:29:29;;;;;;;23.42;18.05;;;;;;;12.86;70.33;101261.44;4988019;28;20034;-70
2021/10/18 04:31:58;;;;;;;23.65;19.95;;;;;;;12.74;70.37;101271.91;4988663;28;20045;-70
2021/10/18 04:34:25;;;;;;;34.90;18.45;;;;;;;12.75;70.44;101265.75;4988715;28;20045;-72
2021/10/18 04:36:50;;;;;;;29.95;20.58;;;;;;;12.84;70.36;101278.97;4987860;28;20068;-71
2021/10/18 04:39:16;;;;;;;26.65;19.15;;;;;;;13.02;70.75;101277.31;4988386;28;20524;-71
2021/10/18 04:41:42;;;;;;;28.90;19.25;;;;;;;13.18;69.76;101275.59;4989970;28;20081;-71
2021/10/18 04:44:07;;;;;;;24.63;18.15;;;;;;;13.08;69.63;101272.03;4986224;28;20402;-72
2021/10/18 04:46:33;;;;;;;23.98;17.30;;;;;;;13.32;69.59;101276.53;4987687;28;20028;-72
2021/10/18 04:48:58;;;;;;;22.85;18.92;;;;;;;13.41;69.54;101278.31;4987898;28;20101;-71
2021/10/18 04:51:24;;;;;;;23.13;19.50;;;;;;;13.34;69.00;101277.41;4987692;28;20126;-71
2021/10/18 04:53:49;;;;;;;24.67;18.52;;;;;;;13.27;68.86;101268.63;4988841;28;20159;-71
2021/10/18 04:56:14;;;;;;;24.77;17.85;;;;;;;13.45;69.26;101277.47;4991212;28;20073;-71
2021/10/18 04:58:40;;;;;;;24.30;17.00;;;;;;;13.45;69.07;101272.19;4989575;28;20046;-70
2021/10/18 05:01:05;;;;;;;24.13;19.00;;;;;;;13.52;69.40;101280.09;4988534;28;20983;-71
2021/10/18 05:03:31;;;;;;;27.27;18.98;;;;;;;13.37;69.46;101285.34;4988514;28;20034;-71
2021/10/18 05:05:56;;;;;;;22.55;18.98;;;;;;;13.46;69.38;101277.47;4988829;28;20069;-71
2021/10/18 05:08:22;;;;;;;31.70;19.52;;;;;;;13.73;69.15;101294.22;4988149;28;20035;-72
2021/10/18 05:10:47;;;;;;;27.52;19.02;;;;;;;13.66;69.06;101298.59;4986920;28;20166;-71
2021/10/18 05:13:15;;;;;;;31.30;20.25;;;;;;;13.69;69.22;101300.34;4987364;28;20030;-70
2021/10/18 05:15:41;;;;;;;25.35;20.10;;;;;;;13.77;68.99;101303.88;5019745;28;20502;-71
2021/10/18 05:18:06;;;;;;;25.85;18.90;;;;;;;13.71;69.47;101302.09;4986598;28;20049;-70
2021/10/18 05:20:34;;;;;;;29.77;20.35;;;;;;;13.76;69.13;101298.59;4988035;28;20478;-71
2021/10/18 05:23:00;;;;;;;26.60;19.60;;;;;;;13.84;68.93;101312.69;4984630;28;20035;-71
2021/10/18 05:25:27;;;;;;;28.10;18.83;;;;;;;13.87;69.29;101304.78;4987428;28;20468;-71
2021/10/18 05:27:53;;;;;;;40.70;18.30;;;;;;;13.86;69.07;101301.25;4986428;28;20054;-70
2021/10/18 05:30:24;;;;;;;27.27;19.30;;;;;;;14.01;69.15;101313.56;4987310;28;20531;-71
2021/10/18 05:32:58;;;;;;;29.67;22.35;;;;;;;14.00;69.14;101316.19;4984554;28;20073;-71
2021/10/18 05:35:23;;;;;;;;;;;;;;;14.01;69.17;101318.84;4988109;28;20173;-71
2021/10/18 05:37:49;;;;;;;27.38;19.23;;;;;;;14.05;68.84;101312.69;4987159;28;19917;-71
2021/10/18 05:40:17;;;;;;;20.08;16.50;;;;;;;14.10;68.88;101323.25;4987469;28;20031;-70
2021/10/18 05:42:43;;;;;;;25.55;18.90;;;;;;;14.08;68.76;101314.47;4985624;28;20422;-71
2021/10/18 05:45:09;;;;;;;25.65;20.85;;;;;;;14.07;68.97;101321.50;4985878;28;20042;-71
2021/10/18 05:47:35;;;;;;;26.20;19.65;;;;;;;14.08;69.01;101319.75;4986604;28;20030;-72
2021/10/18 05:50:01;;;;;;;27.15;21.67;;;;;;;14.14;68.69;101335.56;4981917;28;20553;-83
2021/10/18 05:52:29;;;;;;;29.92;19.70;;;;;;;14.19;68.41;101332.91;4985951;28;20116;-75
2021/10/18 05:54:55;;;;;;;25.98;20.48;;;;;;;14.20;68.40;101335.56;4990238;28;20030;-81
2021/10/18 05:57:21;;;;;;;26.25;19.13;;;;;;;13.53;69.59;101336.34;4993670;28;20085;-81
2021/10/18 05:59:47;;;;;;;32.00;21.08;;;;;;;13.93;68.84;101321.50;4987962;28;20038;-82
2021/10/18 06:02:13;;;;;;;28.77;21.02;;;;;;;14.25;68.44;101338.22;4987307;28;20037;-79
2021/10/18 06:04:43;;;;;;;24.73;20.90;;;;;;;14.20;68.25;101332.06;5002777;28;20366;-79
2021/10/18 06:07:10;;;;;;;32.17;21.58;;;;;;;14.39;68.69;101348.75;4984766;28;20117;-79
2021/10/18 06:09:40;;;;;;;34.33;20.52;;;;;;;14.38;67.80;101337.34;4989170;28;20225;-77
2021/10/18 06:12:06;;;;;;;29.50;22.23;;;;;;;14.43;67.76;101350.53;4988058;28;20038;-81
2021/10/18 06:14:31;;;;;;;26.05;21.85;;;;;;;14.48;67.74;101348.75;4986688;28;20038;-80
2021/10/18 06:16:57;;;;;;;35.45;21.42;;;;;;;14.52;68.36;101347.88;4985993;28;20082;-77
2021/10/18 06:19:22;;;;;;;33.83;22.35;;;;;;;14.67;68.07;101355.81;4983662;28;20046;-79
2021/10/18 06:21:49;;;;;;;37.10;20.13;;;;;;;14.77;67.70;101360.22;4986418;28;20026;-76
2021/10/18 06:24:14;;;;;;;34.40;21.38;;;;;;;14.77;67.42;101347.00;4985973;28;20037;-79
2021/10/18 06:26:40;;;;;;;31.88;22.08;;;;;;;14.76;67.48;101361.06;4983138;28;20494;-81
2021/10/18 06:29:05;;;;;;;28.05;21.55;;;;;;;14.95;66.14;101355.75;4987143;28;20240;-82
2021/10/18 06:31:32;;;;;;;33.20;21.77;;;;;;;14.94;66.15;101367.22;4986808;28;20098;-77
2021/10/18 06:33:57;;;;;;;27.98;21.63;;;;;;;15.01;66.21;101373.34;4984577;28;20061;-76
2021/10/18 06:36:23;;;;;;;24.65;19.50;;;;;;;15.05;66.15;101367.16;4985874;28;20061;-78
2021/10/18 06:38:48;;;;;;;28.13;20.92;;;;;;;15.00;66.43;101367.19;4988187;28;20049;-77
2021/10/18 06:41:13;;;;;;;34.30;20.15;;;;;;;14.93;66.28;101368.94;4986613;28;20034;-78
2021/10/18 06:43:39;;;;;;;26.00;21.95;;;;;;;15.03;65.46;101366.28;4987529;28;20026;-78
2021/10/18 06:46:05;;;;;;;27.25;19.55;;;;;;;15.17;65.34;101372.41;4985440;28;20082;-80
2021/10/18 06:48:32;;;;;;;31.42;24.70;;;;;;;15.20;66.16;101372.41;4985794;28;20072;-79
2021/10/18 06:50:58;;;;;;;28.05;22.30;;;;;;;15.22;66.22;101370.66;4986842;28;20030;-76
2021/10/18 06:53:31;;;;;;;29.88;20.00;;;;;;;15.23;64.89;101374.16;4986656;28;20038;-77
2021/10/18 06:55:59;;;;;;;25.23;22.52;;;;;;;15.29;66.08;101379.41;4984497;28;20061;-76
2021/10/18 06:58:25;;;;;;;30.00;20.45;;;;;;;15.41;65.17;101376.75;4986796;28;20030;-80
2021/10/18 07:00:52;;;;;;;29.20;20.88;;;;;;;15.43;64.57;101376.72;4987080;28;20053;-80
2021/10/18 07:03:17;;;;;;;29.20;19.98;;;;;;;15.40;64.34;101370.56;4987188;28;20033;-76
2021/10/18 07:05:43;;;;;;;31.17;21.30;;;;;;;15.46;64.02;101374.06;4985861;28;20401;-76
2021/10/18 07:08:08;;;;;;;23.70;19.52;;;;;;;15.49;63.83;101380.22;4986224;28;20038;-77
2021/10/18 07:10:34;;;;;;;29.70;21.75;;;;;;;15.53;64.14;101381.97;4985945;28;20037;-78
2021/10/18 07:12:59;;;;;;;29.45;20.58;;;;;;;15.51;63.63;101382.84;4987244;28;20546;-79
2021/10/18 07:15:25;;;;;;;27.38;20.17;;;;;;;15.64;63.51;101387.22;4986530;28;20045;-78
2021/10/18 07:17:51;;;;;;;25.88;21.33;;;;;;;15.66;63.76;101382.75;4986001;28;20026;-75
2021/10/18 07:20:17;;;;;;;29.88;19.38;;;;;;;15.76;63.96;101389.81;4981402;28;20038;-76
2021/10/18 07:22:43;;;;;;;26.75;20.38;;;;;;;15.80;63.65;101391.56;4984035;28;20097;-78
2021/10/18 07:25:12;;;;;;;30.35;20.00;;;;;;;15.82;63.07;101384.47;4985075;28;20069;-78
2021/10/18 07:27:37;;;;;;;28.95;22.85;;;;;;;15.75;63.42;101393.34;4985856;28;20037;-75
2021/10/18 07:30:04;;;;;;;27.98;21.60;;;;;;;15.84;62.72;101395.06;4984910;28;20038;-76
2021/10/18 07:32:30;;;;;;;28.17;21.95;;;;;;;15.74;63.24;101391.59;4986416;28;20605;-79
2021/10/18 07:34:57;;;;;;;26.73;22.00;;;;;;;15.94;63.09;101402.03;4984794;28;20042;-79
2021/10/18 07:37:26;;;;;;;30.00;20.80;;;;;;;16.08;62.77;101395.78;4986955;28;20035;-77
2021/10/18 07:39:52;;;;;;;22.88;17.77;;;;;;;15.86;62.01;101400.34;4983961;28;20490;-78
2021/10/18 07:42:18;;;;;;;26.80;20.58;;;;;;;15.82;61.63;101410.94;4986422;28;20038;-77
2021/10/18 07:44:43;;;;;;;32.30;19.05;;;;;;;15.81;62.31;101413.59;4986789;28;20130;-77
2021/10/18 07:47:09;;;;;;;25.02;19.80;;;;;;;15.83;62.04;101404.78;4986027;28;20402;-77
2021/10/18 07:49:40;;;;;;;20.73;17.73;;;;;;;16.05;61.89;101417.88;4981408;28;20471;-79
2021/10/18 07:52:07;;;;;;;25.15;18.52;;;;;;;16.15;61.90;101413.38;4987840;28;20074;-78
2021/10/18 07:54:33;;;;;;;29.15;19.35;;;;;;;16.14;61.66;101416.94;4988385;28;20475;-75
2021/10/18 07:56:58;;;;;;;27.25;19.42;;;;;;;16.21;61.76;101413.34;4992189;28;20038;-76
2021/10/18 07:59:24;;;;;;;24.13;19.58;;;;;;;16.00;61.29;101417.91;4999903;28;20034;-78
2021/10/18 08:01:49;;;;;;;24.58;18.05;;;;;;;15.73;60.79;101421.59;4991492;28;20203;-78
2021/10/18 08:04:15;;;;;;;29.90;19.17;;;;;;;15.83;61.09;101415.34;4989690;28;20367;-79
2021/10/18 08:06:40;;;;;;;22.95;18.55;;;;;;;15.92;61.56;101422.38;4989783;28;20101;-79
2021/10/18 08:09:10;;;;;;;26.08;18.63;;;;;;;16.02;61.00;101413.47;4991686;28;20069;-79
2021/10/18 08:11:35;;;;;;;24.83;18.67;;;;;;;16.32;61.33;101423.84;4987469;28;20085;-78
2021/10/18 08:14:01;;;;;;;29.98;20.33;;;;;;;15.94;61.19;101419.69;4986376;28;20035;-79
2021/10/18 08:16:27;;;;;;;23.35;17.27;;;;;;;16.09;59.97;101424.03;4986571;28;20541;-77
2021/10/18 08:18:52;;;;;;;21.98;16.27;;;;;;;15.89;60.06;101421.50;4983443;28;20118;-78
2021/10/18 08:21:18;;;;;;;28.33;20.00;;;;;;;16.09;59.46;101418.75;4989426;28;20076;-76
2021/10/18 08:23:44;;;;;;;24.65;18.65;;;;;;;16.29;60.74;101416.81;4989930;28;20425;-76
2021/10/18 08:26:10;;;;;;;28.25;18.67;;;;;;;15.92;60.77;101419.72;4986993;28;20054;-76
2021/10/18 08:28:36;;;;;;;26.25;19.58;;;;;;;15.99;59.63;101423.19;4986149;28;20117;-75
2021/10/18 08:31:02;;;;;;;21.73;19.25;;;;;;;15.98;61.11;101414.38;4990468;28;20066;-77
2021/10/18 08:33:27;;;;;;;23.10;18.48;;;;;;;16.20;60.73;101409.84;4988909;28;20116;-78
2021/10/18 08:35:53;;;;;;;27.67;19.40;;;;;;;16.33;59.91;101415.03;4987756;28;20526;-80
2021/10/18 08:41:10;;;;;;;28.17;18.55;;;;;;;16.49;59.52;101399.91;4988545;28;20121;-75
2021/10/18 08:46:02;;;;;;;25.17;19.73;;;;;;;16.84;58.10;101418.16;4988959;28;20117;-76
2021/10/18 08:48:28;;;;;;;21.35;16.10;;;;;;;16.76;58.04;101420.81;4986082;28;20091;-79
2021/10/18 08:50:54;;;;;;;23.70;18.40;;;;;;;17.00;58.92;101405.63;4988949;28;20041;-74
2021/10/18 08:53:21;;;;;;;25.10;16.48;;;;;;;17.11;57.15;101418.75;4987900;28;20035;-79
2021/10/18 08:55:46;;;;;;;24.35;19.27;;;;;;;17.04;57.95;101420.59;4988923;28;20045;-79
2021/10/18 08:58:12;;;;;;;24.52;19.30;;;;;;;17.14;58.32;101421.38;4990167;28;20057;-80
2021/10/18 09:00:51;;;;;;;24.67;19.77;;;;;;;17.22;57.88;101414.22;4988552;28;20061;-79
2021/10/18 09:03:28;;;;;;;27.55;21.48;;;;;;;17.32;57.38;101415.00;4986886;28;20482;-79
2021/10/18 09:06:16;;;;;;;26.48;20.92;;;;;;;17.32;57.67;101407.03;4988703;28;20367;-79
2021/10/18 09:08:52;;;;;;;26.92;21.33;;;;;;;17.40;57.36;101413.13;4990170;28;20048;-79
2021/10/18 09:11:23;;;;;;;28.80;22.30;;;;;;;17.35;57.51;101407.88;4987443;28;20041;-77
2021/10/18 09:13:51;;;;;;;24.85;19.25;;;;;;;17.43;56.93;101418.41;4988030;28;20202;-78
2021/10/18 09:16:32;;;;;;;25.42;19.48;;;;;;;16.90;57.68;101412.78;4989877;28;20026;-78
2021/10/18 09:19:11;;;;;;;23.73;19.20;;;;;;;17.10;57.31;101407.28;4984027;28;20089;-77
2021/10/18 09:21:44;;;;;;;22.77;18.25;;;;;;;16.75;58.33;101416.44;4987906;28;20113;-77
2021/10/18 09:24:34;;;;;;;26.15;17.88;;;;;;;16.93;59.56;101410.13;4987382;28;20088;-79
2021/10/18 09:27:02;;;;;;;23.35;18.80;;;;;;;17.23;58.71;101411.56;5019160;28;20042;-75
2021/10/18 09:29:47;;;;;;;25.80;20.23;;;;;;;17.40;57.99;101406.06;4991903;28;20062;-78
2021/10/18 09:32:19;;;;;;;28.88;21.08;;;;;;;17.40;57.70;101394.56;4991608;28;20529;-74
2021/10/18 09:34:44;;;;;;;21.60;18.75;;;;;;;16.93;57.95;101393.31;4988750;28;20026;-78
2021/10/18 09:37:12;;;;;;;22.10;18.58;;;;;;;17.12;58.11;101397.53;4988144;28;20058;-73
2021/10/18 09:39:42;;;;;;;20.83;16.23;;;;;;;17.21;57.48;101383.31;4987329;28;20045;-74
2021/10/18 09:42:15;;;;;;;22.40;18.33;;;;;;;17.19;57.02;101393.03;4986793;28;20034;-79
2021/10/18 10:52:40;;;;;;;27.23;19.67;;;;;;;17.10;59.21;101354.25;4984936;28;20101;-77
2021/10/18 10:55:21;;;;;;;23.40;19.70;;;;;;;17.06;58.47;101352.50;4987099;28;20039;-80
2021/10/18 10:57:48;;;;;;;25.92;19.45;;;;;;;17.13;59.50;101350.66;4984911;28;20030;-80
2021/10/18 11:00:33;;;;;;;28.75;21.33;;;;;;;17.18;58.22;101336.44;4986516;28;20103;-79
2021/10/18 11:03:23;;;;;;;28.27;21.13;;;;;;;17.36;57.94;101338.00;4988264;28;20092;-78
2021/10/18 11:06:03;;;;;;;40.65;20.13;;;;;;;17.38;58.01;101330.91;4985924;28;20034;-80
2021/10/18 11:08:32;;;;;;;22.60;18.75;;;;;;;17.43;57.49;101333.50;4986619;28;20033;-78
2021/10/18 11:11:15;;;;;;;36.35;20.08;;;;;;;17.39;58.49;101331.78;4986843;28;20034;-75
2021/10/18 11:14:01;;;;;;;30.42;22.40;;;;;;;17.48;57.91;101324.56;4989461;28;20187;-78
2021/10/18 11:16:29;;;;;;;26.90;21.23;;;;;;;17.38;58.32;101328.25;4985882;28;20049;-79
2021/10/18 11:18:57;;;;;;;26.13;19.85;;;;;;;17.39;58.92;101324.69;4980610;28;20042;-75
2021/10/18 11:21:26;;;;;;;25.45;18.05;;;;;;;17.28;57.63;101324.84;4988228;28;20368;-76
2021/10/18 11:24:09;;;;;;;27.02;19.80;;;;;;;17.38;58.54;101322.94;4986742;28;20046;-79
2021/10/18 11:26:41;;;;;;;;;;;;;;;17.40;58.60;101317.63;4982714;28;20041;-77
2021/10/18 11:29:11;;;;;;;26.80;18.35;;;;;;;17.42;57.99;101311.38;4988283;28;20008;-75
2021/10/18 11:31:40;;;;;;;25.40;18.63;;;;;;;17.03;58.87;101324.25;4991237;28;20108;-78
2021/10/18 11:34:15;;;;;;;24.13;18.92;;;;;;;16.63;59.53;101316.72;4988564;28;20030;-78
2021/10/18 11:36:47;;;;;;;24.30;17.92;;;;;;;16.57;59.23;101305.31;4988557;28;20034;-79
2021/10/18 11:39:16;;;;;;;22.63;17.43;;;;;;;16.77;59.39;101323.66;5001139;28;20022;-77
2021/10/18 11:42:13;;;;;;;22.13;17.70;;;;;;;16.91;58.89;101316.47;5005783;28;20034;-78
2021/10/18 11:44:55;;;;;;;33.38;18.88;;;;;;;17.08;58.47;101321.56;5004272;28;20072;-72
2021/10/18 11:47:25;;;;;;;26.08;18.00;;;;;;;16.91;58.88;101313.81;4991983;28;20410;-76
2021/10/18 11:50:15;;;;;;;29.20;17.60;;;;;;;17.11;59.18;101302.94;4987147;28;20049;-78
2021/10/18 11:52:43;;;;;;;23.48;16.75;;;;;;;17.19;58.52;101305.53;4982159;28;20034;-78
2021/10/18 11:55:11;;;;;;;25.15;18.63;;;;;;;17.14;57.63;101312.63;4989006;28;20038;-78
2021/10/18 11:57:42;;;;;;;24.48;17.00;;;;;;;17.18;57.48;101309.91;4986040;28;20034;-78
2021/10/18 12:00:13;;;;;;;19.77;16.98;;;;;;;16.97;57.88;101295.16;4986852;28;20049;-78
2021/10/18 12:02:43;;;;;;;29.65;15.82;;;;;;;17.06;58.50;101295.03;4987880;28;20053;-77
2021/10/18 12:05:09;;;;;;;24.38;16.45;;;;;;;17.21;58.27;101304.59;4982057;28;20421;-78
2021/10/18 12:07:48;;;;;;;26.20;17.83;;;;;;;17.21;58.25;101303.72;4988965;28;20026;-77
2021/10/18 12:10:27;;;;;;;25.10;16.00;;;;;;;17.00;58.20;101303.09;4988120;28;20042;-76
2021/10/18 12:13:28;;;;;;;19.20;15.75;;;;;;;16.99;58.64;101303.09;4986207;28;20112;-77
2021/10/18 12:16:03;;;;;;;25.05;15.18;;;;;;;17.04;57.91;101301.25;4986095;28;20124;-78
2021/10/18 12:18:42;;;;;;;19.10;15.20;;;;;;;16.56;58.89;101291.19;4981608;28;20046;-74
2021/10/18 12:21:10;;;;;;;28.75;16.45;;;;;;;16.78;58.78;101298.91;4988883;28;20508;-78
2021/10/18 12:23:57;;;;;;;23.77;15.20;;;;;;;16.94;58.73;101299.63;4990294;28;20517;-76
2021/10/18 12:26:26;;;;;;;24.83;14.60;;;;;;;16.68;59.29;101306.06;4985453;28;20040;-78